Time;durP1;ratioP1;P1;durP2;ratioP2;P2;SDS_P1;SDS_P2;PMS_P1;PMS_P2;Temp;Humidity;BMP_temperature;BMP_pressure;BME280_temperature;BME280_humidity;BME280_pressure;Samples;Min_cycle;Max_cycle;Signal;HPM_P1;HPM_P2
2022/06/20 00:01:47;;;;;;;;;;;25.90;61.50;;;;;;6155563;23;19944;-80
2022/06/20 00:04:16;;;;;;;;;;;25.90;61.50;;;;;;6156033;23;19921;-80
2022/06/20 00:06:49;;;;;;;;;;;25.90;61.00;;;;;;6156042;23;19920;-81
2022/06/20 00:09:16;;;;;;;;;;;25.90;60.70;;;;;;6155593;23;20300;-80
2022/06/20 00:11:47;;;;;;;;;;;25.90;60.60;;;;;;6154781;23;20416;-80
2022/06/20 00:14:15;;;;;;;;;;;25.90;60.80;;;;;;6157337;23;20346;-80
2022/06/20 00:16:42;;;;;;;;;;;25.90;61.60;;;;;;6155312;23;19924;-80
2022/06/20 00:19:10;;;;;;;;;;;25.90;62.90;;;;;;6156096;23;19924;-80
2022/06/20 00:21:37;;;;;;;;;;;25.80;63.30;;;;;;6155654;23;19951;-80
2022/06/20 00:24:04;;;;;;;;;;;25.80;64.60;;;;;;6155540;23;19935;-80
2022/06/20 00:26:31;;;;;;;;;;;25.80;65.00;;;;;;6156071;23;19921;-80
2022/06/20 00:28:57;;;;;;;;;;;25.70;64.80;;;;;;6156642;23;19971;-80
2022/06/20 00:31:24;;;;;;;;;;;25.60;64.70;;;;;;6155122;23;19921;-80
2022/06/20 00:33:51;;;;;;;;;;;25.50;65.00;;;;;;6155115;23;19921;-80
2022/06/20 00:36:18;;;;;;;;;;;25.40;64.60;;;;;;6156173;23;19921;-80
2022/06/20 00:38:48;;;;;;;;;;;25.40;64.30;;;;;;6155474;23;19972;-80
2022/06/20 00:41:16;;;;;;;;;;;25.30;63.90;;;;;;6156207;23;19921;-79
2022/06/20 00:43:46;;;;;;;;;;;25.20;65.00;;;;;;6155545;23;19927;-80
2022/06/20 00:46:19;;;;;;;;;;;25.10;65.30;;;;;;6155887;23;20007;-80
2022/06/20 00:48:52;;;;;;;;;;;25.00;65.50;;;;;;6155916;23;19949;-80
2022/06/20 00:51:46;;;;;;;;;;;24.90;65.30;;;;;;6155671;23;19971;-80
2022/06/20 00:54:31;;;;;;;;;;;24.90;65.30;;;;;;6133887;23;19928;-79
2022/06/20 00:57:05;;;;;;;;;;;24.80;65.50;;;;;;6156055;23;19920;-79
2022/06/20 00:59:38;;;;;;;;;;;24.80;65.90;;;;;;6154771;23;20060;-79
2022/06/20 01:02:08;;;;;;;;;;;24.70;65.80;;;;;;6156114;23;19946;-80
2022/06/20 01:04:35;;;;;;;;;;;24.70;65.80;;;;;;6155955;23;19921;-79
2022/06/20 01:07:05;;;;;;;;;;;24.60;65.80;;;;;;6155951;23;19920;-78
2022/06/20 01:09:34;;;;;;;;;;;24.60;66.10;;;;;;6155970;23;19929;-80
2022/06/20 01:12:04;;;;;;;;;;;24.60;66.50;;;;;;6155994;23;19952;-80
2022/06/20 01:14:37;;;;;;;;;;;24.60;66.50;;;;;;6156427;23;19920;-80
2022/06/20 01:17:27;;;;;;;;;;;24.50;66.40;;;;;;6155246;23;19928;-81
2022/06/20 01:19:58;;;;;;;;;;;24.50;66.70;;;;;;6145732;23;19979;-80
2022/06/20 01:22:25;;;;;;;;;;;24.40;68.00;;;;;;6155423;23;19925;-80
2022/06/20 01:25:01;;;;;;;;;;;24.30;67.40;;;;;;6155809;23;19971;-80
2022/06/20 01:27:33;;;;;;;;;;;24.30;67.50;;;;;;6157191;23;19924;-80
2022/06/20 01:30:01;;;;;;;;;;;24.30;67.20;;;;;;6155140;23;19928;-80
2022/06/20 01:32:29;;;;;;;;;;;24.30;67.20;;;;;;6156412;23;19924;-80
2022/06/20 01:34:57;;;;;;;;;;;24.20;67.40;;;;;;6155397;23;19921;-80
2022/06/20 01:37:26;;;;;;;;;;;24.20;68.90;;;;;;6154691;23;19921;-80
2022/06/20 01:39:56;;;;;;;;;;;24.20;70.10;;;;;;6154228;23;20006;-81
2022/06/20 01:42:23;;;;;;;;;;;24.10;70.60;;;;;;6154688;23;19924;-80
2022/06/20 01:44:52;;;;;;;;;;;24.00;70.90;;;;;;6154837;23;19924;-80
2022/06/20 01:47:19;;;;;;;;;;;24.00;70.80;;;;;;6156245;23;20353;-80
2022/06/20 01:49:48;;;;;;;;;;;23.90;70.50;;;;;;6154841;23;19928;-81
2022/06/20 01:52:27;;;;;;;;;;;23.90;70.60;;;;;;6154953;23;19925;-80
2022/06/20 01:55:14;;;;;;;;;;;23.80;70.30;;;;;;6155992;23;19924;-80
2022/06/20 01:57:42;;;;;;;;;;;23.80;70.30;;;;;;6155070;23;19975;-80
2022/06/20 02:00:13;;;;;;;;;;;23.70;70.80;;;;;;6155228;23;20404;-79
2022/06/20 02:02:42;;;;;;;;;;;23.70;70.70;;;;;;6154767;23;19967;-80
2022/06/20 02:05:11;;;;;;;;;;;23.70;70.50;;;;;;6154848;23;19928;-80
2022/06/20 02:07:39;;;;;;;;;;;23.60;71.10;;;;;;6153905;23;19975;-81
2022/06/20 02:10:07;;;;;;;;;;;23.60;71.50;;;;;;6154554;23;19924;-80
2022/06/20 02:12:35;;;;;;;;;;;23.50;71.40;;;;;;6155128;23;20293;-80
2022/06/20 02:15:04;;;;;;;;;;;23.40;71.40;;;;;;6154753;23;19921;-80
2022/06/20 02:17:50;;;;;;;;;;;23.40;71.40;;;;;;6156140;23;20305;-80
2022/06/20 02:20:27;;;;;;;;;;;23.40;71.20;;;;;;6154393;23;19987;-80
2022/06/20 02:22:56;;;;;;;;;;;23.30;71.40;;;;;;6155542;23;19972;-80
2022/06/20 02:25:24;;;;;;;;;;;23.30;71.10;;;;;;6156743;23;20254;-80
2022/06/20 02:27:54;;;;;;;;;;;23.30;71.20;;;;;;6155744;23;19943;-80
2022/06/20 02:30:21;;;;;;;;;;;23.30;71.40;;;;;;6155902;23;19971;-79
2022/06/20 02:32:55;;;;;;;;;;;23.30;71.40;;;;;;6154433;23;19921;-81
2022/06/20 02:35:22;;;;;;;;;;;23.20;71.30;;;;;;6155473;23;19967;-80
2022/06/20 02:37:49;;;;;;;;;;;23.20;71.40;;;;;;6155600;23;19971;-80
2022/06/20 02:40:18;;;;;;;;;;;23.20;71.70;;;;;;6157269;23;19920;-80
2022/06/20 02:42:50;;;;;;;;;;;23.10;71.90;;;;;;6158124;23;19927;-80
2022/06/20 02:45:18;;;;;;;;;;;23.10;71.90;;;;;;6162768;23;19920;-80
2022/06/20 02:47:47;;;;;;;;;;;23.10;71.70;;;;;;6162508;23;19920;-80
2022/06/20 02:50:16;;;;;;;;;;;23.10;71.70;;;;;;6162213;23;19963;-80
2022/06/20 02:52:45;;;;;;;;;;;23.00;71.80;;;;;;6161145;23;19975;-80
2022/06/20 02:55:14;;;;;;;;;;;23.00;72.20;;;;;;6161010;23;20265;-79
2022/06/20 02:57:42;;;;;;;;;;;22.90;72.70;;;;;;6161210;23;19928;-79
2022/06/20 03:00:17;;;;;;;;;;;22.80;73.10;;;;;;6162175;23;19920;-85
2022/06/20 03:02:47;;;;;;;;;;;22.70;73.30;;;;;;6163484;23;20408;-85
2022/06/20 03:05:15;;;;;;;;;;;22.60;73.40;;;;;;6163091;23;19920;-85
2022/06/20 03:07:43;;;;;;;;;;;22.60;73.80;;;;;;6164098;23;19920;-85
2022/06/20 03:10:32;;;;;;;;;;;22.60;74.80;;;;;;6163579;23;19974;-84
2022/06/20 03:12:59;;;;;;;;;;;22.50;74.00;;;;;;6165340;23;19975;-85
2022/06/20 03:15:27;;;;;;;;;;;22.50;73.60;;;;;;6190004;23;20304;-85
2022/06/20 03:17:57;;;;;;;;;;;22.50;73.90;;;;;;6163659;23;19951;-85
2022/06/20 03:20:28;;;;;;;;;;;22.40;74.00;;;;;;6163602;23;19920;-85
2022/06/20 03:23:05;;;;;;;;;;;22.40;74.20;;;;;;6165636;23;19924;-85
2022/06/20 03:25:32;;;;;;;;;;;22.40;74.10;;;;;;6164499;23;19920;-85
2022/06/20 03:27:59;;;;;;;;;;;22.40;73.90;;;;;;6165302;23;20391;-85
2022/06/20 03:30:47;;;;;;;;;;;22.30;73.10;;;;;;6168257;23;19998;-85
2022/06/20 03:33:16;;;;;;;;;;;22.40;73.10;;;;;;6164713;23;19928;-85
2022/06/20 03:35:44;;;;;;;;;;;22.40;73.20;;;;;;6164033;23;20245;-85
2022/06/20 03:38:12;;;;;;;;;;;22.30;74.50;;;;;;6163722;23;19943;-85
2022/06/20 03:40:39;;;;;;;;;;;22.30;73.80;;;;;;6164783;23;20333;-85
2022/06/20 03:43:08;;;;;;;;;;;22.20;74.50;;;;;;6162944;23;20407;-85
2022/06/20 03:45:36;;;;;;;;;;;22.20;74.20;;;;;;6164119;23;19935;-85
2022/06/20 03:48:03;;;;;;;;;;;22.20;74.60;;;;;;6164009;23;19924;-85
2022/06/20 03:50:35;;;;;;;;;;;22.10;74.80;;;;;;6163077;23;19924;-85
2022/06/20 03:53:08;;;;;;;;;;;22.10;75.30;;;;;;6190401;23;20300;-85
2022/06/20 03:55:39;;;;;;;;;;;22.10;75.70;;;;;;6163855;23;19920;-85
2022/06/20 03:58:18;;;;;;;;;;;21.90;75.90;;;;;;6163166;23;19963;-85
2022/06/20 04:00:54;;;;;;;;;;;21.90;76.30;;;;;;6164077;23;20258;-85
2022/06/20 04:03:34;;;;;;;;;;;21.80;77.10;;;;;;6163109;23;19921;-84
2022/06/20 04:06:06;;;;;;;;;;;21.80;77.60;;;;;;6163414;23;20320;-84
2022/06/20 04:11:23;;;;;;;;;;;21.70;76.80;;;;;;6189396;23;19924;-84
2022/06/20 04:13:58;;;;;;;;;;;21.80;76.70;;;;;;6163901;23;19924;-84
2022/06/20 04:16:28;;;;;;;;;;;21.80;76.70;;;;;;6190357;23;20325;-85
2022/06/20 04:19:08;;;;;;;;;;;21.80;76.80;;;;;;6188013;23;20272;-84
2022/06/20 04:21:45;;;;;;;;;;;21.80;77.00;;;;;;6163409;23;19931;-85
2022/06/20 04:24:24;;;;;;;;;;;21.80;76.20;;;;;;6162738;23;19944;-85
2022/06/20 04:26:51;;;;;;;;;;;21.90;76.30;;;;;;6161909;23;20345;-84
2022/06/20 04:29:28;;;;;;;;;;;21.90;76.10;;;;;;6162164;23;19920;-85
2022/06/20 04:32:11;;;;;;;;;;;21.90;75.70;;;;;;6162349;23;19975;-84
2022/06/20 04:34:41;;;;;;;;;;;22.00;75.50;;;;;;6162154;23;19920;-84
2022/06/20 04:37:08;;;;;;;;;;;22.00;75.10;;;;;;6161597;23;19925;-85
2022/06/20 04:39:37;;;;;;;;;;;22.10;74.80;;;;;;6163029;23;19974;-85
2022/06/20 04:42:13;;;;;;;;;;;22.10;74.70;;;;;;6162893;23;20069;-85
2022/06/20 04:44:46;;;;;;;;;;;22.10;74.40;;;;;;6188429;23;19921;-84
2022/06/20 04:47:34;;;;;;;;;;;22.20;74.00;;;;;;6163059;23;19978;-84
2022/06/20 04:50:00;;;;;;;;;;;22.20;73.50;;;;;;6162841;23;19931;-85
2022/06/20 04:52:29;;;;;;;;;;;22.30;74.50;;;;;;6162228;23;19990;-85
2022/06/20 04:54:56;;;;;;;;;;;22.30;74.80;;;;;;6161710;23;20352;-84
2022/06/20 04:57:25;;;;;;;;;;;22.30;75.00;;;;;;6162687;23;20278;-85
2022/06/20 04:59:57;;;;;;;;;;;22.30;75.60;;;;;;6162624;23;20288;-84
2022/06/20 05:02:25;;;;;;;;;;;22.30;76.40;;;;;;6187719;23;19924;-85
2022/06/20 05:04:53;;;;;;;;;;;22.30;77.00;;;;;;6162711;23;20012;-84
2022/06/20 05:07:38;;;;;;;;;;;22.30;77.80;;;;;;6162470;23;19921;-85
2022/06/20 05:10:11;;;;;;;;;;;22.20;76.50;;;;;;6162241;23;19932;-85
2022/06/20 05:12:43;;;;;;;;;;;22.30;76.40;;;;;;6161690;23;19921;-85
2022/06/20 05:15:16;;;;;;;;;;;22.30;76.40;;;;;;6162464;23;19990;-85
2022/06/20 05:17:46;;;;;;;;;;;22.30;76.20;;;;;;6161732;23;20490;-85
2022/06/20 05:20:34;;;;;;;;;;;22.30;76.00;;;;;;6162694;23;19920;-85
2022/06/20 05:23:02;;;;;;;;;;;22.30;75.90;;;;;;6162656;23;20297;-85
2022/06/20 05:25:31;;;;;;;;;;;22.40;75.80;;;;;;6188153;23;19975;-86
2022/06/20 05:28:00;;;;;;;;;;;22.40;75.70;;;;;;6161433;23;19920;-85
2022/06/20 05:30:30;;;;;;;;;;;22.40;75.80;;;;;;6160959;23;19943;-82
2022/06/20 05:33:04;;;;;;;;;;;22.50;75.60;;;;;;6160561;23;20221;-84
2022/06/20 05:35:37;;;;;;;;;;;22.50;75.20;;;;;;6160667;23;19925;-84
2022/06/20 05:38:12;;;;;;;;;;;22.60;74.80;;;;;;6159233;23;19978;-82
2022/06/20 05:40:44;;;;;;;;;;;22.70;73.60;;;;;;6183594;23;19983;-82
2022/06/20 05:43:17;;;;;;;;;;;22.70;72.80;;;;;;6158717;23;19927;-83
2022/06/20 05:45:45;;;;;;;;;;;22.80;70.60;;;;;;6158968;23;20268;-83
2022/06/20 05:48:12;;;;;;;;;;;22.80;69.90;;;;;;6159254;23;20028;-82
2022/06/20 05:50:43;;;;;;;;;;;22.90;67.50;;;;;;6158897;23;19920;-82
2022/06/20 05:53:18;;;;;;;;;;;23.00;66.90;;;;;;6160773;23;19920;-81
2022/06/20 05:55:47;;;;;;;;;;;23.00;65.90;;;;;;6185425;23;19928;-82
2022/06/20 05:58:17;;;;;;;;;;;23.10;65.60;;;;;;6159456;23;20211;-82
2022/06/20 06:00:45;;;;;;;;;;;23.20;65.70;;;;;;6159592;23;19928;-82
2022/06/20 06:03:13;;;;;;;;;;;23.30;65.30;;;;;;6159457;23;19951;-82
2022/06/20 06:05:43;;;;;;;;;;;23.30;65.10;;;;;;6159334;23;20304;-81
2022/06/20 06:08:29;;;;;;;;;;;23.30;65.10;;;;;;6159526;23;19982;-81
2022/06/20 06:11:20;;;;;;;;;;;23.40;64.80;;;;;;6163551;23;20023;-82
2022/06/20 06:13:50;;;;;;;;;;;23.50;64.10;;;;;;6159461;23;19921;-82
2022/06/20 06:19:23;;;;;;;;;;;23.60;65.60;;;;;;6187229;23;20457;-83
2022/06/20 06:21:51;;;;;;;;;;;23.70;66.30;;;;;;6161681;23;20333;-82
2022/06/20 06:24:20;;;;;;;;;;;23.80;66.40;;;;;;6160870;23;19967;-81
2022/06/20 06:26:48;;;;;;;;;;;23.80;66.30;;;;;;6187471;23;20292;-82
2022/06/20 06:29:26;;;;;;;;;;;23.90;65.00;;;;;;6161689;23;19928;-82
2022/06/20 06:31:58;;;;;;;;;;;24.00;65.30;;;;;;6161588;23;19921;-82
2022/06/20 06:34:27;;;;;;;;;;;24.00;64.50;;;;;;6161361;23;19924;-81
2022/06/20 06:36:57;;;;;;;;;;;24.00;63.40;;;;;;6162237;23;20298;-82
2022/06/20 06:39:29;;;;;;;;;;;24.10;62.60;;;;;;6161023;23;19927;-81
2022/06/20 06:41:57;;;;;;;;;;;24.20;62.60;;;;;;6187842;23;19924;-82
2022/06/20 06:44:35;;;;;;;;;;;24.20;61.70;;;;;;6160828;23;19920;-81
2022/06/20 06:47:03;;;;;;;;;;;24.30;61.30;;;;;;6161611;23;19924;-81
2022/06/20 06:49:39;;;;;;;;;;;24.50;60.80;;;;;;6161325;23;19924;-81
2022/06/20 06:52:12;;;;;;;;;;;24.50;59.80;;;;;;6161163;23;20214;-82
2022/06/20 06:54:42;;;;;;;;;;;24.60;58.60;;;;;;6160755;23;19920;-82
2022/06/20 06:57:12;;;;;;;;;;;24.70;58.30;;;;;;6161745;23;19925;-83
2022/06/20 06:59:57;;;;;;;;;;;24.80;57.70;;;;;;6160729;23;19920;-82
2022/06/20 07:02:27;;;;;;;;;;;24.80;57.20;;;;;;6187679;23;20292;-84
2022/06/20 07:04:54;;;;;;;;;;;25.00;56.70;;;;;;6161659;23;19920;-82
2022/06/20 07:07:44;;;;;;;;;;;25.10;56.00;;;;;;6161500;23;20248;-81
2022/06/20 07:10:19;;;;;;;;;;;25.10;55.30;;;;;;6142551;23;19920;-82
2022/06/20 07:12:48;;;;;;;;;;;25.20;54.50;;;;;;6160736;23;19971;-83
2022/06/20 07:15:19;;;;;;;;;;;25.40;55.60;;;;;;6161249;23;19931;-83
2022/06/20 07:17:46;;;;;;;;;;;25.50;55.80;;;;;;6160799;23;19924;-84
2022/06/20 07:20:13;;;;;;;;;;;25.60;54.30;;;;;;6187178;23;19920;-83
2022/06/20 07:22:41;;;;;;;;;;;25.70;53.50;;;;;;6161235;23;19983;-83
2022/06/20 07:25:19;;;;;;;;;;;25.80;53.30;;;;;;6160932;23;19920;-82
2022/06/20 07:27:54;;;;;;;;;;;25.90;52.70;;;;;;6161442;23;19974;-83
2022/06/20 07:30:24;;;;;;;;;;;26.00;51.80;;;;;;6161240;23;20304;-83
2022/06/20 07:33:04;;;;;;;;;;;26.10;50.60;;;;;;6160944;23;20333;-83
2022/06/20 07:35:35;;;;;;;;;;;26.20;48.50;;;;;;6160828;23;19920;-82
2022/06/20 07:38:03;;;;;;;;;;;26.30;48.40;;;;;;6161327;23;19920;-83
2022/06/20 07:40:52;;;;;;;;;;;26.40;48.00;;;;;;6187290;23;19920;-82
2022/06/20 07:43:30;;;;;;;;;;;26.50;48.10;;;;;;6167733;23;19979;-83
2022/06/20 07:46:02;;;;;;;;;;;26.70;48.00;;;;;;6160906;23;20288;-83
2022/06/20 07:48:39;;;;;;;;;;;26.80;47.80;;;;;;6161179;23;19920;-83
2022/06/20 07:51:09;;;;;;;;;;;27.00;47.60;;;;;;6160241;23;19920;-83
2022/06/20 07:53:42;;;;;;;;;;;27.10;46.40;;;;;;6186952;23;19920;-83
2022/06/20 07:56:12;;;;;;;;;;;27.20;46.40;;;;;;6160531;23;20304;-83
2022/06/20 07:58:42;;;;;;;;;;;27.20;46.40;;;;;;6160701;23;19947;-83
2022/06/20 08:01:17;;;;;;;;;;;27.40;47.00;;;;;;6160804;23;20296;-83
2022/06/20 08:03:52;;;;;;;;;;;27.50;47.20;;;;;;6161008;23;19920;-83
2022/06/20 08:06:39;;;;;;;;;;;27.60;46.00;;;;;;6160737;23;19956;-83
2022/06/20 08:09:25;;;;;;;;;;;27.80;46.00;;;;;;6161419;23;19982;-83
2022/06/20 08:12:01;;;;;;;;;;;27.90;44.90;;;;;;6161185;23;19926;-83
2022/06/20 08:14:31;;;;;;;;;;;28.00;44.60;;;;;;6160702;23;19920;-82
2022/06/20 08:17:00;;;;;;;;;;;28.10;44.90;;;;;;6160459;23;19948;-82
2022/06/20 08:19:28;;;;;;;;;;;28.20;43.60;;;;;;6160931;23;19964;-83
2022/06/20 08:21:59;;;;;;;;;;;28.30;43.80;;;;;;6160611;23;19920;-83
2022/06/20 08:24:30;;;;;;;;;;;28.30;43.60;;;;;;6160225;23;20361;-82
2022/06/20 08:27:00;;;;;;;;;;;28.40;42.80;;;;;;6161155;23;20289;-83
2022/06/20 08:29:31;;;;;;;;;;;28.40;42.10;;;;;;6160737;23;19921;-82
2022/06/20 08:32:04;;;;;;;;;;;28.50;42.50;;;;;;6160388;23;19924;-82
2022/06/20 08:34:34;;;;;;;;;;;28.50;42.80;;;;;;6160245;23;20011;-83
2022/06/20 08:37:04;;;;;;;;;;;28.60;42.90;;;;;;6160505;23;19971;-82
2022/06/20 08:39:33;;;;;;;;;;;28.70;43.00;;;;;;6161030;23;19931;-81
2022/06/20 08:42:12;;;;;;;;;;;28.80;42.50;;;;;;6186634;23;19925;-83
2022/06/20 08:44:42;;;;;;;;;;;28.90;42.90;;;;;;6160237;23;19920;-82
2022/06/20 08:47:24;;;;;;;;;;;29.10;42.70;;;;;;6160588;23;19920;-83
2022/06/20 08:50:10;;;;;;;;;;;29.20;41.30;;;;;;6160563;23;20338;-84
2022/06/20 08:53:15;;;;;;;;;;;29.20;41.90;;;;;;6164484;23;20285;-82
2022/06/20 08:56:02;;;;;;;;;;;29.50;38.90;;;;;;6160803;23;19920;-82
2022/06/20 08:58:28;;;;;;;;;;;29.60;38.70;;;;;;6160298;23;19920;-82
2022/06/20 09:00:55;;;;;;;;;;;29.80;39.80;;;;;;6159653;23;19928;-83
2022/06/20 09:03:26;;;;;;;;;;;29.80;39.60;;;;;;6160296;23;20267;-83
2022/06/20 09:06:12;;;;;;;;;;;29.90;39.90;;;;;;6160282;23;19920;-83
2022/06/20 09:08:48;;;;;;;;;;;30.00;40.50;;;;;;6160573;23;20329;-81
2022/06/20 09:11:21;;;;;;;;;;;30.00;39.80;;;;;;6160392;23;19928;-82
2022/06/20 09:13:58;;;;;;;;;;;30.10;40.00;;;;;;6160210;23;20037;-82
2022/06/20 09:16:31;;;;;;;;;;;30.20;40.20;;;;;;6161242;23;19920;-82
2022/06/20 09:19:17;;;;;;;;;;;30.30;40.20;;;;;;6186347;23;19944;-83
2022/06/20 09:21:54;;;;;;;;;;;30.40;39.90;;;;;;6160498;23;20304;-82
2022/06/20 09:24:23;;;;;;;;;;;30.60;39.40;;;;;;6159599;23;19979;-82
2022/06/20 09:26:50;;;;;;;;;;;30.70;39.30;;;;;;6160684;23;19981;-83
2022/06/20 09:29:27;;;;;;;;;;;30.80;38.50;;;;;;6159905;23;20292;-82
2022/06/20 09:31:54;;;;;;;;;;;30.80;38.00;;;;;;6160215;23;19951;-81
2022/06/20 09:34:33;;;;;;;;;;;30.90;38.80;;;;;;6159576;23;19924;-81
2022/06/20 09:37:06;;;;;;;;;;;31.00;38.70;;;;;;6185807;23;19971;-82
2022/06/20 09:39:36;;;;;;;;;;;31.00;37.80;;;;;;6160414;23;19920;-83
2022/06/20 09:42:18;;;;;;;;;;;31.20;37.90;;;;;;6160134;23;19924;-82
2022/06/20 09:45:03;;;;;;;;;;;31.30;37.00;;;;;;6185725;23;19951;-81
2022/06/20 09:47:30;;;;;;;;;;;31.30;37.50;;;;;;6186252;23;19943;-81
2022/06/20 09:50:04;;;;;;;;;;;31.30;37.70;;;;;;6162350;23;19920;-82
2022/06/20 09:52:31;;;;;;;;;;;31.40;36.90;;;;;;6162087;23;19920;-82
2022/06/20 09:54:58;;;;;;;;;;;31.50;36.80;;;;;;6161806;23;19927;-82
2022/06/20 09:57:28;;;;;;;;;;;31.50;36.80;;;;;;6187369;23;19920;-82
2022/06/20 10:00:01;;;;;;;;;;;31.70;36.90;;;;;;6187693;23;19931;-82
2022/06/20 10:02:47;;;;;;;;;;;31.80;37.30;;;;;;6162077;23;19995;-82
2022/06/20 10:05:42;;;;;;;;;;;31.80;36.90;;;;;;6161339;23;19921;-82
2022/06/20 10:08:11;;;;;;;;;;;32.00;36.70;;;;;;6157041;23;20358;-82
2022/06/20 10:10:43;;;;;;;;;;;31.90;35.60;;;;;;6162065;23;20296;-83
2022/06/20 10:13:18;;;;;;;;;;;31.90;35.30;;;;;;6161881;23;19925;-82
2022/06/20 10:15:50;;;;;;;;;;;31.90;35.30;;;;;;6161675;23;20370;-82
2022/06/20 10:18:36;;;;;;;;;;;32.00;36.60;;;;;;6161811;23;19920;-82
2022/06/20 10:21:12;;;;;;;;;;;32.10;36.30;;;;;;6161401;23;19921;-82
2022/06/20 10:23:45;;;;;;;;;;;32.10;36.30;;;;;;6161586;23;19966;-81
2022/06/20 10:26:21;;;;;;;;;;;32.30;37.60;;;;;;6162025;23;19920;-82
2022/06/20 10:29:06;;;;;;;;;;;32.30;35.80;;;;;;6161429;23;19920;-81
2022/06/20 10:31:36;;;;;;;;;;;32.30;36.60;;;;;;6161125;23;19990;-83
2022/06/20 10:34:06;;;;;;;;;;;32.50;36.70;;;;;;6161589;23;20223;-82
2022/06/20 10:36:44;;;;;;;;;;;32.40;35.50;;;;;;6161908;23;19931;-82
2022/06/20 10:39:19;;;;;;;;;;;32.40;35.90;;;;;;6161542;23;20333;-82
2022/06/20 10:41:56;;;;;;;;;;;32.50;36.50;;;;;;6162481;23;19931;-81
2022/06/20 10:44:28;;;;;;;;;;;32.40;35.70;;;;;;6161047;23;19925;-80
2022/06/20 10:47:04;;;;;;;;;;;32.30;37.40;;;;;;6161134;23;19940;-79
2022/06/20 10:49:40;;;;;;;;;;;32.30;34.80;;;;;;6160133;23;19920;-79
2022/06/20 10:52:19;;;;;;;;;;;32.00;35.00;;;;;;6160704;23;19927;-79
2022/06/20 10:55:05;;;;;;;;;;;32.00;35.70;;;;;;6160792;23;19928;-79
2022/06/20 10:57:45;;;;;;;;;;;32.00;36.40;;;;;;6160274;23;19924;-78
2022/06/20 11:00:16;;;;;;;;;;;32.10;36.00;;;;;;6160568;23;19971;-79
2022/06/20 11:03:02;;;;;;;;;;;32.30;36.50;;;;;;6160639;23;19920;-79
2022/06/20 11:05:50;;;;;;;;;;;32.60;35.70;;;;;;6186011;23;19920;-79
2022/06/20 11:08:40;;;;;;;;;;;32.80;35.70;;;;;;6186563;23;19924;-79
2022/06/20 11:11:25;;;;;;;;;;;33.00;35.50;;;;;;6186629;23;20272;-79
2022/06/20 11:14:16;;;;;;;;;;;33.00;35.30;;;;;;6160328;23;19976;-79
2022/06/20 11:16:53;;;;;;;;;;;33.00;34.90;;;;;;6160550;23;19924;-79
2022/06/20 11:19:43;;;;;;;;;;;33.10;34.70;;;;;;6159481;23;19920;-79
2022/06/20 11:22:16;;;;;;;;;;;33.10;34.70;;;;;;6160162;23;20256;-79
2022/06/20 11:24:43;;;;;;;;;;;33.10;34.50;;;;;;6160184;23;20261;-79
2022/06/20 11:27:29;;;;;;;;;;;33.10;34.90;;;;;;6159281;23;19986;-80
2022/06/20 11:30:07;;;;;;;;;;;33.10;35.20;;;;;;6185697;23;19944;-79
2022/06/20 11:33:01;;;;;;;;;;;33.20;34.40;;;;;;6159293;23;19920;-79
2022/06/20 11:35:30;;;;;;;;;;;33.40;34.70;;;;;;6159186;23;19927;-79
2022/06/20 11:38:03;;;;;;;;;;;33.60;33.70;;;;;;6159306;23;19928;-79
2022/06/20 11:40:35;;;;;;;;;;;33.70;34.30;;;;;;6159459;23;19928;-79
2022/06/20 11:43:23;;;;;;;;;;;33.70;33.20;;;;;;6185343;23;20333;-79
2022/06/20 11:46:13;;;;;;;;;;;33.40;34.10;;;;;;6159021;23;19951;-79
2022/06/20 11:48:55;;;;;;;;;;;33.20;34.70;;;;;;6185942;23;19920;-78
2022/06/20 11:51:26;;;;;;;;;;;33.20;35.30;;;;;;6159517;23;19925;-79
2022/06/20 11:54:07;;;;;;;;;;;33.30;35.40;;;;;;6159494;23;19920;-78
2022/06/20 11:56:34;;;;;;;;;;;33.50;34.60;;;;;;6159780;23;19927;-78
2022/06/20 11:59:20;;;;;;;;;;;33.70;35.30;;;;;;6162794;23;19920;-79
2022/06/20 12:01:55;;;;;;;;;;;33.90;33.60;;;;;;6158809;23;19924;-79
2022/06/20 12:04:22;;;;;;;;;;;33.80;33.60;;;;;;6158837;23;19920;-79
2022/06/20 12:06:49;;;;;;;;;;;33.90;34.50;;;;;;6159361;23;20359;-78
2022/06/20 12:09:22;;;;;;;;;;;34.00;34.50;;;;;;6159602;23;19991;-79
2022/06/20 12:12:04;;;;;;;;;;;34.20;33.50;;;;;;6158210;23;19925;-79
2022/06/20 12:15:00;;;;;;;;;;;34.30;34.20;;;;;;6159776;23;19928;-79
2022/06/20 12:17:32;;;;;;;;;;;34.30;33.40;;;;;;6129015;23;19924;-78
2022/06/20 12:26:00;;;;;;;;;;;34.30;34.10;;;;;;6185451;23;19920;-78
2022/06/20 12:28:31;;;;;;;;;;;34.30;33.80;;;;;;6158404;23;20414;-79
2022/06/20 12:31:01;;;;;;;;;;;34.30;33.90;;;;;;6184841;23;19924;-79
2022/06/20 12:33:29;;;;;;;;;;;34.30;33.70;;;;;;6184437;23;19943;-78
2022/06/20 12:35:58;;;;;;;;;;;34.40;33.40;;;;;;6159054;23;20234;-78
2022/06/20 12:38:33;;;;;;;;;;;34.40;33.10;;;;;;6160177;23;19927;-79
2022/06/20 12:41:03;;;;;;;;;;;34.50;33.70;;;;;;6158976;23;19920;-79
2022/06/20 12:43:48;;;;;;;;;;;34.60;32.90;;;;;;6184592;23;19976;-78
2022/06/20 12:46:34;;;;;;;;;;;34.60;33.80;;;;;;6184759;23;19928;-80
2022/06/20 12:49:04;;;;;;;;;;;34.70;33.60;;;;;;6184313;23;19920;-79
2022/06/20 12:51:37;;;;;;;;;;;34.80;33.20;;;;;;6158861;23;19931;-79
2022/06/20 12:54:13;;;;;;;;;;;34.80;32.90;;;;;;6159051;23;19974;-79
2022/06/20 12:56:46;;;;;;;;;;;34.70;31.70;;;;;;6158346;23;20345;-79
2022/06/20 12:59:12;;;;;;;;;;;34.50;32.80;;;;;;6158120;23;19979;-79
2022/06/20 13:01:53;;;;;;;;;;;34.60;33.30;;;;;;6158262;23;19921;-78
2022/06/20 13:04:38;;;;;;;;;;;34.60;33.40;;;;;;6184035;23;19959;-77
2022/06/20 13:07:12;;;;;;;;;;;34.70;32.00;;;;;;6158411;23;19951;-78
2022/06/20 13:09:42;;;;;;;;;;;34.90;32.00;;;;;;6157888;23;19971;-79
2022/06/20 13:12:18;;;;;;;;;;;35.00;32.00;;;;;;6158329;23;19920;-78
2022/06/20 13:14:45;;;;;;;;;;;35.10;31.50;;;;;;6139848;23;19952;-79
2022/06/20 13:17:18;;;;;;;;;;;35.30;32.90;;;;;;6151123;23;19921;-79
2022/06/20 13:19:44;;;;;;;;;;;35.50;32.00;;;;;;6151188;23;19921;-79
2022/06/20 13:22:11;;;;;;;;;;;35.50;31.40;;;;;;6152712;23;19920;-79
2022/06/20 13:24:41;;;;;;;;;;;35.60;30.90;;;;;;6153265;23;19920;-79
2022/06/20 13:27:13;;;;;;;;;;;35.60;30.00;;;;;;6150756;23;19973;-79
2022/06/20 13:30:01;;;;;;;;;;;35.70;30.70;;;;;;6151936;23;19924;-79
2022/06/20 13:32:32;;;;;;;;;;;35.50;31.40;;;;;;6145822;23;19925;-79
2022/06/20 13:35:03;;;;;;;;;;;35.60;31.70;;;;;;6123603;23;19921;-78
2022/06/20 13:37:51;;;;;;;;;;;35.70;31.20;;;;;;6122712;23;19989;-79
2022/06/20 13:40:26;;;;;;;;;;;35.80;30.80;;;;;;6133524;23;20337;-79
2022/06/20 13:43:12;;;;;;;;;;;35.70;31.30;;;;;;6134121;23;20011;-78
2022/06/20 13:45:48;;;;;;;;;;;35.70;30.80;;;;;;6121662;23;20322;-78
2022/06/20 13:48:19;;;;;;;;;;;35.70;30.60;;;;;;6145907;23;20297;-79
2022/06/20 13:50:46;;;;;;;;;;;35.80;30.30;;;;;;6122391;23;20232;-79
2022/06/20 13:53:27;;;;;;;;;;;35.90;30.80;;;;;;6134844;23;19936;-79
2022/06/20 13:55:59;;;;;;;;;;;36.20;31.40;;;;;;6138743;23;19984;-79
2022/06/20 13:58:29;;;;;;;;;;;36.30;30.00;;;;;;6151573;23;19924;-79
2022/06/20 14:00:58;;;;;;;;;;;36.10;29.60;;;;;;6128689;23;19925;-79
2022/06/20 14:03:31;;;;;;;;;;;35.70;29.50;;;;;;6139731;23;20331;-79
2022/06/20 14:06:09;;;;;;;;;;;35.60;30.90;;;;;;6122001;23;20327;-78
2022/06/20 14:08:36;;;;;;;;;;;35.80;32.20;;;;;;6135425;23;19967;-79
2022/06/20 14:11:06;;;;;;;;;;;36.00;31.60;;;;;;6158182;23;20334;-79
2022/06/20 14:13:35;;;;;;;;;;;36.20;31.90;;;;;;6122438;23;19928;-78
2022/06/20 14:16:22;;;;;;;;;;;36.50;30.30;;;;;;6135054;23;19972;-78
2022/06/20 14:19:00;;;;;;;;;;;36.60;30.50;;;;;;6122914;23;19921;-79
2022/06/20 14:21:35;;;;;;;;;;;36.70;30.70;;;;;;6122992;23;19925;-79
2022/06/20 14:24:02;;;;;;;;;;;37.00;30.20;;;;;;6133109;23;19991;-78
2022/06/20 14:26:34;;;;;;;;;;;37.00;29.30;;;;;;6144262;23;19925;-78
2022/06/20 14:29:04;;;;;;;;;;;36.60;28.90;;;;;;6133333;23;19943;-79
2022/06/20 14:31:33;;;;;;;;;;;36.50;29.50;;;;;;6121724;23;20401;-79
2022/06/20 14:34:09;;;;;;;;;;;36.30;29.20;;;;;;6145518;23;19972;-80
2022/06/20 14:36:40;;;;;;;;;;;36.10;30.00;;;;;;6135148;23;19925;-79
2022/06/20 14:39:14;;;;;;;;;;;36.30;30.80;;;;;;6135205;23;19925;-79
2022/06/20 14:41:52;;;;;;;;;;;36.50;30.00;;;;;;6124457;23;19921;-80
2022/06/20 14:44:22;;;;;;;;;;;36.60;29.50;;;;;;6124045;23;19920;-78
2022/06/20 14:47:02;;;;;;;;;;;36.80;30.40;;;;;;6147161;23;19928;-78
2022/06/20 14:49:29;;;;;;;;;;;36.70;29.60;;;;;;6123509;23;19921;-78
2022/06/20 14:52:14;;;;;;;;;;;36.60;29.60;;;;;;6135346;23;19925;-78
2022/06/20 14:54:47;;;;;;;;;;;36.70;30.00;;;;;;6123388;23;19928;-78
2022/06/20 14:57:19;;;;;;;;;;;36.90;30.00;;;;;;6123162;23;19983;-78
2022/06/20 14:59:54;;;;;;;;;;;37.00;29.70;;;;;;6134815;23;19928;-79
2022/06/20 15:02:20;;;;;;;;;;;37.00;29.00;;;;;;6135647;23;20199;-80
2022/06/20 15:04:50;;;;;;;;;;;37.00;28.90;;;;;;6125037;23;19969;-78